KESWICK RESERVOIR (KES)

Elevation: 596' · SACRAMENTO R basin · Operator: US Bureau of Reclamation

Provisional data, subject to change.
Query executed Monday at 10:34:29   clock

Select a sensor type for a plot of data.
Note: Reservoir Flows are daily averages.

Earlier

Date RES ELE    STORAGE    RES CHG    OUTFLOW    INFLOW   
 FEET   AF   AF   CFS   CFS  
08/01/2015 581.87 20610 -17 6889 6886
08/02/2015 582.48 20973 363 6908 7097
08/03/2015 583.24 21429 456 6917 7153
08/04/2015 583.21 21410 -19 6915 6913
08/05/2015 583.63 21665 255 6916 7052
08/06/2015 584.31 22081 416 6916 7130
08/07/2015 584.72 22334 253 6914 7047
08/08/2015 585.37 22739 405 6944 7154
08/09/2015 584.97 22488 -251 6938 6816
08/10/2015 583.39 21520 -968 6885 6402
08/11/2015 582.02 20698 -822 6861 6452
08/12/2015 580.48 19800 -898 6756 6309
08/13/2015 579.17 19058 -- 6758 6390
08/14/2015 582.97 21265 2207 6640 7760
08/15/2015 584.93 22464 1199 6900 7508
08/16/2015 584.20 22013 -451 6895 6674
08/17/2015 584.53 22217 204 6923 7034
08/18/2015 582.42 20937 -1280 6919 6280
08/19/2015 582.05 20716 -221 6906 6802
08/20/2015 580.80 19985 -731 6922 6558
08/21/2015 581.52 20405 420 6897 7114
08/22/2015 582.37 20907 502 6898 7156
08/23/2015 582.08 20734 -173 6898 6816
08/24/2015 584.43 22155 1421 6870 7593
08/25/2015 584.45 22168 13 6905 6918
08/26/2015 584.67 22303 135 6901 6974
08/27/2015 582.46 20961 -1342 6906 6235
08/28/2015 583.06 21319 358 6914 7100
08/29/2015 583.86 21805 486 6906 7157
08/30/2015 582.58 21032 -773 6908 6522
08/31/2015 -- -- -- -- --

Later | Latest

Warning! This data is preliminary and subject to revision.

Show KES Map | Plot KES Data | 1 Month KES Data | Real-Time KES Data | KES Info